Time;durP1;ratioP1;P1;durP2;ratioP2;P2;SDS_P1;SDS_P2;PMS_P1;PMS_P2;Temp;Humidity;BMP_temperature;BMP_pressure;BME280_temperature;BME280_humidity;BME280_pressure;Samples;Min_cycle;Max_cycle;Signal;HPM_P1;HPM_P2
2021/12/26 00:02:19;;;;;;;9.07;8.47;;;1.40;99.90;;;;;;5071452;28;20589;-64
2021/12/26 00:04:44;;;;;;;9.20;8.70;;;1.40;99.90;;;;;;5071710;28;20170;-65
2021/12/26 00:07:10;;;;;;;9.80;9.20;;;1.40;99.90;;;;;;5071614;28;20190;-65
2021/12/26 00:09:36;;;;;;;9.17;8.67;;;1.40;99.90;;;;;;5071546;28;20542;-66
2021/12/26 00:12:02;;;;;;;9.23;8.73;;;1.40;99.90;;;;;;5070510;28;20174;-65
2021/12/26 00:14:27;;;;;;;9.30;8.80;;;1.40;99.90;;;;;;5071504;28;20213;-66
2021/12/26 00:16:53;;;;;;;9.57;8.97;;;1.40;99.90;;;;;;5071618;28;20567;-66
2021/12/26 00:19:19;;;;;;;9.70;9.07;;;1.40;99.90;;;;;;5071535;28;20170;-65
2021/12/26 00:21:45;;;;;;;9.57;8.97;;;1.50;99.90;;;;;;5071453;28;20182;-65
2021/12/26 00:24:10;;;;;;;9.10;8.60;;;1.50;99.90;;;;;;5071337;28;20172;-66
2021/12/26 00:26:37;;;;;;;9.17;8.57;;;1.50;99.90;;;;;;5071421;28;20574;-66
2021/12/26 00:29:04;;;;;;;8.97;8.33;;;1.50;99.90;;;;;;5071511;28;20185;-66
2021/12/26 00:31:30;;;;;;;9.10;8.50;;;1.50;99.90;;;;;;5071069;28;20643;-66
2021/12/26 00:33:56;;;;;;;9.50;8.83;;;1.50;99.90;;;;;;5071206;28;20221;-65
2021/12/26 00:36:22;;;;;;;9.43;8.90;;;1.50;99.90;;;;;;5071373;28;20293;-65
2021/12/26 00:38:48;;;;;;;9.23;8.53;;;1.50;99.90;;;;;;5071433;28;20241;-65
2021/12/26 00:41:14;;;;;;;10.10;9.50;;;1.50;99.90;;;;;;5071515;28;20595;-65
2021/12/26 00:43:39;;;;;;;10.33;9.63;;;1.50;99.90;;;;;;5070142;28;20174;-65
2021/12/26 00:46:05;;;;;;;9.93;9.33;;;1.50;99.90;;;;;;5071377;28;20609;-65
2021/12/26 00:48:31;;;;;;;9.83;9.17;;;1.50;99.90;;;;;;5081848;22;20255;-67
2021/12/26 00:50:57;;;;;;;10.40;9.67;;;1.50;99.90;;;;;;5012062;28;20176;-67
2021/12/26 00:53:23;;;;;;;9.33;8.83;;;1.50;99.90;;;;;;5011764;28;20215;-67
2021/12/26 00:55:50;;;;;;;9.17;8.60;;;1.50;99.90;;;;;;5009812;28;20633;-67
2021/12/26 00:58:16;;;;;;;8.57;8.07;;;1.50;99.90;;;;;;5010655;28;20215;-66
2021/12/26 01:00:45;;;;;;;9.40;8.80;;;1.50;99.90;;;;;;5011126;28;20700;-67
2021/12/26 01:03:14;;;;;;;8.83;8.43;;;1.50;99.90;;;;;;5011269;28;20171;-68
2021/12/26 01:05:46;;;;;;;9.40;8.90;;;1.50;99.90;;;;;;5011107;28;20179;-65
2021/12/26 01:08:16;;;;;;;9.70;9.10;;;1.50;99.90;;;;;;5011399;28;20184;-67
2021/12/26 01:10:49;;;;;;;9.63;9.13;;;1.50;99.90;;;;;;5010895;28;20637;-67
2021/12/26 01:13:38;;;;;;;9.07;8.53;;;1.50;99.90;;;;;;5011329;28;20218;-67
2021/12/26 01:16:07;;;;;;;9.50;8.80;;;1.60;99.90;;;;;;5011094;28;20235;-66
2021/12/26 01:18:35;;;;;;;8.83;8.37;;;1.60;99.90;;;;;;5010863;28;20192;-67
2021/12/26 01:21:16;;;;;;;9.50;8.80;;;1.60;99.90;;;;;;5011538;28;20179;-67
2021/12/26 01:23:43;;;;;;;9.70;9.00;;;1.60;99.90;;;;;;5011121;28;20226;-68
2021/12/26 01:26:08;;;;;;;9.50;8.90;;;1.60;99.90;;;;;;5011522;28;20183;-67
2021/12/26 01:28:34;;;;;;;9.70;9.10;;;1.60;99.90;;;;;;5014505;28;20299;-67
2021/12/26 01:31:00;;;;;;;9.40;8.77;;;1.60;99.90;;;;;;5015028;28;20694;-67
2021/12/26 01:33:27;;;;;;;10.40;9.60;;;1.60;99.90;;;;;;5014688;28;20648;-68
2021/12/26 01:35:53;;;;;;;10.30;9.70;;;1.60;99.90;;;;;;5014908;28;20215;-67
2021/12/26 01:38:19;;;;;;;9.03;8.53;;;1.60;99.90;;;;;;5013359;28;20168;-67
2021/12/26 01:40:49;;;;;;;9.70;9.10;;;1.60;99.90;;;;;;5014873;28;20175;-67
2021/12/26 01:43:16;;;;;;;8.80;8.20;;;1.60;99.90;;;;;;5014542;28;20259;-67
2021/12/26 01:45:43;;;;;;;9.33;8.73;;;1.50;99.90;;;;;;5014774;28;20172;-67
2021/12/26 01:48:09;;;;;;;9.00;8.50;;;1.60;99.90;;;;;;5014502;28;20184;-66
2021/12/26 01:50:36;;;;;;;9.83;9.23;;;1.50;99.90;;;;;;5014056;28;20172;-67
2021/12/26 01:53:03;;;;;;;9.93;9.23;;;1.60;99.90;;;;;;5014036;28;20199;-67
2021/12/26 01:55:40;;;;;;;9.20;8.60;;;1.60;99.90;;;;;;5014393;28;20268;-68
2021/12/26 01:58:11;;;;;;;9.40;8.80;;;1.50;99.90;;;;;;5014414;28;20199;-66
2021/12/26 02:00:39;;;;;;;8.60;8.10;;;1.50;99.90;;;;;;5014478;28;20631;-67
2021/12/26 02:03:05;;;;;;;8.77;8.17;;;1.50;99.90;;;;;;5014232;28;20168;-67
2021/12/26 02:05:31;;;;;;;9.80;9.20;;;1.40;99.90;;;;;;5014316;28;20168;-67
2021/12/26 02:07:57;;;;;;;9.27;8.67;;;1.40;99.90;;;;;;5014190;28;20182;-68
2021/12/26 02:10:23;;;;;;;9.67;9.07;;;1.30;99.90;;;;;;5014126;28;20207;-67
2021/12/26 02:12:48;;;;;;;9.77;9.00;;;1.30;99.90;;;;;;5013867;28;20196;-68
2021/12/26 02:15:14;;;;;;;9.43;8.53;;;1.40;99.90;;;;;;5014106;28;20230;-66
2021/12/26 02:17:40;;;;;;;9.23;8.63;;;1.40;99.90;;;;;;5013972;28;20172;-68
2021/12/26 02:20:19;;;;;;;9.70;9.10;;;1.40;99.90;;;;;;5013912;28;20184;-67
2021/12/26 02:22:49;;;;;;;10.53;9.83;;;1.50;99.90;;;;;;5013774;28;20183;-66
2021/12/26 02:27:30;;;;;;;10.47;9.77;;;1.60;99.90;;;;;;5014019;28;20173;-66
2021/12/26 02:28:14;;;;;;;10.30;9.63;;;1.70;99.90;;;;;;5013745;28;20613;-65
2021/12/26 02:30:41;;;;;;;11.23;10.27;;;1.70;99.90;;;;;;5013938;28;20594;-68
2021/12/26 02:33:10;;;;;;;11.03;10.13;;;1.70;99.90;;;;;;5013515;28;20196;-67
2021/12/26 02:35:41;;;;;;;10.37;9.67;;;1.70;99.90;;;;;;5013681;28;20786;-67
2021/12/26 02:38:08;;;;;;;10.30;9.63;;;1.70;99.90;;;;;;5013170;28;20243;-68
2021/12/26 02:40:33;;;;;;;10.13;9.43;;;1.70;99.90;;;;;;5013253;28;20194;-66
2021/12/26 02:42:59;;;;;;;11.47;10.57;;;1.70;99.90;;;;;;5013388;28;20168;-67
2021/12/26 02:45:25;;;;;;;10.33;9.63;;;1.60;99.90;;;;;;5013572;28;20172;-67
2021/12/26 02:47:52;;;;;;;10.07;9.37;;;1.60;99.90;;;;;;5013303;28;20588;-66
2021/12/26 02:50:25;;;;;;;9.63;9.03;;;1.50;99.90;;;;;;5013300;28;20208;-67
2021/12/26 02:52:51;;;;;;;9.70;9.10;;;1.50;99.90;;;;;;5013267;28;20246;-67
2021/12/26 02:55:19;;;;;;;10.20;9.50;;;1.50;99.90;;;;;;5012157;28;20172;-67
2021/12/26 02:57:53;;;;;;;9.97;9.17;;;1.40;99.90;;;;;;5013312;28;20168;-66
2021/12/26 03:00:25;;;;;;;9.43;8.83;;;1.40;99.90;;;;;;5013176;28;20195;-66
2021/12/26 03:02:53;;;;;;;11.90;11.17;;;1.40;99.90;;;;;;5013095;28;20168;-67
2021/12/26 03:05:20;;;;;;;12.47;11.47;;;1.40;99.90;;;;;;5013132;28;20634;-67
2021/12/26 03:07:47;;;;;;;10.87;10.17;;;1.40;99.90;;;;;;5013137;28;20585;-67
2021/12/26 03:10:22;;;;;;;11.43;10.53;;;1.50;99.90;;;;;;5012988;28;20194;-67
2021/12/26 03:12:59;;;;;;;11.40;10.50;;;1.60;99.90;;;;;;5012766;28;20206;-67
2021/12/26 03:15:27;;;;;;;11.23;10.33;;;1.60;99.90;;;;;;5013231;28;20247;-67
2021/12/26 03:17:54;;;;;;;10.93;10.13;;;1.70;99.90;;;;;;5012841;28;20168;-67
2021/12/26 03:20:24;;;;;;;10.70;9.70;;;1.70;99.90;;;;;;5012754;28;20198;-67
2021/12/26 03:22:49;;;;;;;11.43;10.43;;;1.80;99.90;;;;;;5012718;28;20179;-67
2021/12/26 03:25:19;;;;;;;10.53;9.77;;;1.80;99.90;;;;;;5012832;28;20176;-67
2021/12/26 03:27:45;;;;;;;11.20;10.40;;;1.90;99.90;;;;;;5012671;28;20641;-67
2021/12/26 03:30:14;;;;;;;10.80;10.00;;;2.00;99.90;;;;;;5012745;28;20571;-68
2021/12/26 03:32:40;;;;;;;11.77;10.87;;;2.00;99.90;;;;;;5012519;28;20176;-67
2021/12/26 03:35:07;;;;;;;11.73;10.93;;;2.00;99.90;;;;;;5012837;28;20164;-65
2021/12/26 03:37:34;;;;;;;10.60;9.80;;;2.00;99.90;;;;;;5012721;28;20168;-66
2021/12/26 03:39:59;;;;;;;11.13;10.20;;;2.00;99.90;;;;;;5012580;28;20192;-67
2021/12/26 03:42:25;;;;;;;11.33;10.43;;;2.00;99.90;;;;;;5012226;28;20164;-64
2021/12/26 03:44:51;;;;;;;10.53;9.83;;;2.00;99.90;;;;;;5012524;28;20164;-67
2021/12/26 03:47:18;;;;;;;10.33;9.53;;;2.00;99.90;;;;;;5012511;28;20239;-67
2021/12/26 03:49:47;;;;;;;10.00;9.23;;;2.00;99.90;;;;;;5011839;28;20196;-68
2021/12/26 03:52:13;;;;;;;11.40;10.23;;;2.00;99.90;;;;;;5011197;28;20713;-65
2021/12/26 03:54:39;;;;;;;11.40;10.50;;;2.10;99.90;;;;;;5010961;28;20250;-67
2021/12/26 03:57:04;;;;;;;11.97;10.97;;;2.10;99.90;;;;;;5012321;28;20196;-67
2021/12/26 03:59:31;;;;;;;11.70;10.80;;;2.10;99.90;;;;;;5012210;28;20551;-67
2021/12/26 04:01:57;;;;;;;11.77;10.77;;;2.10;99.90;;;;;;5011879;28;20207;-67
2021/12/26 04:04:23;;;;;;;11.03;10.17;;;2.10;99.90;;;;;;5012106;28;20263;-68
2021/12/26 04:06:49;;;;;;;11.50;10.60;;;2.10;99.90;;;;;;5012234;28;20168;-66
2021/12/26 04:09:15;;;;;;;10.33;9.53;;;2.20;99.90;;;;;;5012025;28;20192;-68
2021/12/26 04:11:44;;;;;;;10.60;9.67;;;2.20;99.90;;;;;;5011968;28;20178;-68
2021/12/26 04:14:10;;;;;;;11.37;10.57;;;2.20;99.90;;;;;;5011743;28;20222;-66
2021/12/26 04:16:36;;;;;;;10.77;9.97;;;2.20;99.90;;;;;;5012070;28;20254;-67
2021/12/26 04:19:03;;;;;;;10.17;9.47;;;2.20;99.90;;;;;;5011920;28;20219;-67
2021/12/26 04:21:28;;;;;;;10.50;9.67;;;2.20;99.90;;;;;;5012004;28;20168;-67
2021/12/26 04:23:54;;;;;;;11.53;10.63;;;2.20;99.90;;;;;;5011570;28;20224;-67
2021/12/26 04:26:20;;;;;;;11.17;10.27;;;2.20;99.90;;;;;;5011994;28;20251;-66
2021/12/26 04:28:46;;;;;;;11.90;11.00;;;2.20;99.90;;;;;;5011933;28;20254;-67
2021/12/26 04:31:12;;;;;;;11.73;10.83;;;2.20;99.90;;;;;;5011806;28;20172;-66
2021/12/26 04:33:37;;;;;;;11.47;10.60;;;2.20;99.90;;;;;;5011065;28;20215;-67
2021/12/26 04:36:03;;;;;;;11.33;10.27;;;2.20;99.90;;;;;;5011862;28;20649;-67
2021/12/26 04:38:29;;;;;;;12.17;11.17;;;2.20;99.90;;;;;;5011175;28;20267;-68
2021/12/26 04:40:55;;;;;;;11.57;10.73;;;2.20;99.90;;;;;;5011967;28;20259;-66
2021/12/26 04:43:22;;;;;;;12.03;11.17;;;2.10;99.90;;;;;;5011483;28;20172;-67
2021/12/26 04:45:48;;;;;;;11.60;10.73;;;2.10;99.90;;;;;;5011803;28;20642;-68
2021/12/26 04:48:14;;;;;;;11.47;10.53;;;2.10;99.90;;;;;;5011550;28;20254;-68
2021/12/26 04:50:41;;;;;;;11.60;10.60;;;2.10;99.90;;;;;;5011867;28;20176;-67
2021/12/26 04:53:08;;;;;;;11.17;10.30;;;2.10;99.90;;;;;;5011451;28;20287;-68
2021/12/26 04:55:33;;;;;;;11.20;10.37;;;2.10;99.90;;;;;;5011650;28;20168;-67
2021/12/26 04:57:59;;;;;;;12.00;11.00;;;2.10;99.90;;;;;;5011573;28;20624;-68
2021/12/26 05:00:28;;;;;;;11.67;10.57;;;2.10;99.90;;;;;;5011605;28;20661;-66
2021/12/26 05:02:56;;;;;;;11.63;10.70;;;2.20;99.90;;;;;;5013703;28;20173;-67
2021/12/26 05:05:22;;;;;;;11.63;10.73;;;2.20;99.90;;;;;;5015429;28;20169;-67
2021/12/26 05:07:48;;;;;;;12.07;11.03;;;2.20;99.90;;;;;;5015378;28;20677;-67
2021/12/26 05:10:18;;;;;;;11.47;10.57;;;2.20;99.90;;;;;;5015286;28;20204;-66
2021/12/26 05:12:43;;;;;;;12.03;11.03;;;2.20;99.90;;;;;;5015031;28;20662;-67
2021/12/26 05:15:11;;;;;;;14.53;11.17;;;2.20;99.90;;;;;;5015278;28;20255;-66
2021/12/26 05:17:38;;;;;;;12.53;11.57;;;2.20;99.90;;;;;;5015332;28;20190;-68
2021/12/26 05:20:04;;;;;;;11.50;10.60;;;2.20;99.90;;;;;;5015096;28;20199;-66
2021/12/26 05:22:30;;;;;;;11.77;10.87;;;2.20;99.90;;;;;;5014249;28;20294;-67
2021/12/26 05:24:56;;;;;;;11.80;10.83;;;2.20;99.90;;;;;;5013861;28;20287;-66
2021/12/26 05:27:21;;;;;;;11.90;11.00;;;2.20;99.90;;;;;;5015034;28;20172;-68
2021/12/26 05:29:47;;;;;;;12.73;11.53;;;2.20;99.90;;;;;;5014841;28;20191;-68
2021/12/26 05:32:12;;;;;;;12.90;11.60;;;2.10;99.90;;;;;;5014612;28;20265;-67
2021/12/26 05:34:38;;;;;;;11.53;10.53;;;2.10;99.90;;;;;;5014809;28;20208;-67
2021/12/26 05:37:04;;;;;;;13.03;11.93;;;2.10;99.90;;;;;;5014902;28;20215;-66
2021/12/26 05:39:29;;;;;;;12.73;11.70;;;2.10;99.90;;;;;;5014796;28;20690;-67
2021/12/26 05:41:55;;;;;;;13.00;11.80;;;2.10;99.90;;;;;;5014718;28;20218;-65
2021/12/26 05:44:21;;;;;;;13.83;12.53;;;2.10;99.90;;;;;;5014849;28;20539;-68
2021/12/26 05:46:46;;;;;;;12.13;11.00;;;2.10;99.90;;;;;;5014882;28;20180;-67
2021/12/26 05:49:12;;;;;;;12.70;11.67;;;2.10;99.90;;;;;;5014715;28;20303;-67
2021/12/26 05:51:39;;;;;;;12.80;11.60;;;2.10;99.90;;;;;;5014880;28;21026;-67
2021/12/26 05:54:06;;;;;;;13.07;11.97;;;2.10;99.90;;;;;;5014645;28;20211;-67
2021/12/26 05:56:32;;;;;;;12.00;11.20;;;2.10;99.90;;;;;;5014779;28;20535;-68
2021/12/26 05:58:57;;;;;;;12.93;11.73;;;2.10;99.90;;;;;;5014645;28;20275;-67
2021/12/26 06:01:23;;;;;;;11.87;11.00;;;2.20;99.90;;;;;;5014706;28;20528;-67
2021/12/26 06:03:49;;;;;;;12.97;11.90;;;2.20;99.90;;;;;;5014238;28;20180;-68
2021/12/26 06:06:15;;;;;;;12.60;11.50;;;2.20;99.90;;;;;;5014598;28;20176;-67
2021/12/26 06:08:40;;;;;;;12.87;11.67;;;2.20;99.90;;;;;;5014589;28;20566;-67
2021/12/26 06:11:06;;;;;;;13.43;12.27;;;2.20;99.90;;;;;;5014526;28;20173;-67
2021/12/26 06:13:32;;;;;;;13.17;12.00;;;2.20;99.90;;;;;;5013857;28;20202;-67
2021/12/26 06:15:58;;;;;;;12.73;11.53;;;2.20;99.90;;;;;;5014415;28;20169;-66
2021/12/26 06:18:24;;;;;;;12.97;11.63;;;2.20;99.90;;;;;;5012624;28;20586;-67
2021/12/26 06:20:50;;;;;;;12.90;11.60;;;2.20;99.90;;;;;;5014445;28;20172;-67
2021/12/26 06:23:15;;;;;;;14.80;12.10;;;2.20;99.90;;;;;;5013212;28;20177;-67
2021/12/26 06:25:41;;;;;;;12.67;11.37;;;2.30;99.90;;;;;;5014133;28;20172;-66
2021/12/26 06:28:07;;;;;;;11.00;10.10;;;2.30;99.90;;;;;;5013883;28;20169;-67
2021/12/26 06:30:34;;;;;;;12.20;11.20;;;2.30;99.90;;;;;;5012637;28;20188;-67
2021/12/26 06:32:59;;;;;;;11.30;10.30;;;2.30;99.90;;;;;;5013512;28;20537;-66
2021/12/26 06:35:25;;;;;;;12.57;11.40;;;2.30;99.90;;;;;;5014063;28;20180;-67
2021/12/26 06:37:51;;;;;;;12.90;11.80;;;2.30;99.90;;;;;;5013801;28;20207;-67
2021/12/26 06:40:16;;;;;;;12.97;11.87;;;2.20;99.90;;;;;;5013556;28;20279;-67
2021/12/26 06:42:43;;;;;;;13.30;12.13;;;2.20;99.90;;;;;;5013448;28;20695;-68
2021/12/26 06:45:10;;;;;;;13.37;12.00;;;2.30;99.90;;;;;;5013492;28;20191;-67
2021/12/26 06:47:36;;;;;;;11.77;10.77;;;2.30;99.90;;;;;;5013412;28;20187;-66
2021/12/26 06:50:05;;;;;;;12.57;11.33;;;2.30;99.90;;;;;;5027642;23;20235;-64
2021/12/26 06:52:30;;;;;;;11.53;10.50;;;2.30;99.90;;;;;;5012788;28;20172;-64
2021/12/26 06:54:56;;;;;;;12.47;11.30;;;2.30;99.90;;;;;;5013086;28;20190;-65
2021/12/26 06:57:21;;;;;;;12.40;11.10;;;2.30;99.90;;;;;;5012972;28;20576;-64
2021/12/26 06:59:47;;;;;;;11.70;10.80;;;2.30;99.90;;;;;;5012658;28;20186;-68
2021/12/26 07:02:13;;;;;;;12.30;11.20;;;2.30;99.90;;;;;;5011476;28;20254;-63
2021/12/26 07:04:38;;;;;;;11.90;11.00;;;2.30;99.90;;;;;;5012760;28;20704;-64
2021/12/26 07:07:04;;;;;;;12.10;10.83;;;2.30;99.90;;;;;;5013058;28;20196;-64
2021/12/26 07:09:30;;;;;;;11.93;10.93;;;2.30;99.90;;;;;;5011408;28;20222;-64
2021/12/26 07:11:55;;;;;;;13.77;12.37;;;2.30;99.90;;;;;;5012453;28;20212;-66
2021/12/26 07:14:21;;;;;;;12.37;11.27;;;2.30;99.90;;;;;;5012450;28;20252;-64
2021/12/26 07:16:47;;;;;;;10.30;9.50;;;2.30;99.90;;;;;;5011446;28;20263;-65
2021/12/26 07:19:12;;;;;;;12.43;11.27;;;2.30;99.90;;;;;;5011396;28;20196;-64
2021/12/26 07:21:38;;;;;;;10.93;9.90;;;2.30;99.90;;;;;;5012585;28;20179;-64
2021/12/26 07:24:04;;;;;;;13.00;11.80;;;2.30;99.90;;;;;;5012054;28;20176;-64
2021/12/26 07:26:30;;;;;;;12.20;11.03;;;2.30;99.90;;;;;;5010045;28;20258;-64
2021/12/26 07:28:55;;;;;;;12.57;10.93;;;2.30;99.90;;;;;;5012707;28;20196;-63
2021/12/26 07:31:21;;;;;;;12.50;11.43;;;2.30;99.90;;;;;;5012420;28;20187;-64
2021/12/26 07:33:47;;;;;;;11.83;10.83;;;2.30;99.90;;;;;;5012328;28;20235;-64
2021/12/26 07:36:13;;;;;;;11.87;10.87;;;2.30;99.90;;;;;;5012416;28;20168;-64
2021/12/26 07:38:39;;;;;;;12.37;11.13;;;2.30;99.90;;;;;;5012515;28;20191;-64
2021/12/26 07:41:04;;;;;;;11.97;10.87;;;2.30;99.90;;;;;;5012604;28;20597;-63
2021/12/26 07:43:30;;;;;;;12.37;11.13;;;2.30;99.90;;;;;;5012012;28;20514;-65
2021/12/26 07:45:56;;;;;;;12.23;11.17;;;2.40;99.90;;;;;;5012259;28;20264;-65
2021/12/26 07:48:21;;;;;;;12.00;10.97;;;2.40;99.90;;;;;;5012135;28;20546;-65
2021/12/26 07:50:47;;;;;;;13.40;12.20;;;2.40;99.90;;;;;;5011972;28;20207;-65
2021/12/26 07:53:12;;;;;;;13.10;12.00;;;2.40;99.90;;;;;;5010217;28;20195;-65
2021/12/26 07:55:39;;;;;;;13.33;12.00;;;2.40;99.90;;;;;;5011932;28;20169;-65
2021/12/26 07:58:05;;;;;;;12.77;11.30;;;2.40;99.90;;;;;;5011977;28;20183;-65
2021/12/26 08:00:31;;;;;;;13.33;12.07;;;2.40;99.90;;;;;;5011886;28;20192;-65
2021/12/26 08:02:57;;;;;;;12.70;11.40;;;2.40;99.90;;;;;;5011873;28;20553;-65
2021/12/26 08:05:24;;;;;;;12.70;11.50;;;2.40;99.90;;;;;;5012235;28;20176;-64
2021/12/26 08:07:50;;;;;;;13.67;12.47;;;2.50;99.90;;;;;;5012057;28;20210;-65
2021/12/26 08:10:16;;;;;;;12.47;11.37;;;2.50;99.90;;;;;;5011874;28;20662;-64
2021/12/26 08:12:41;;;;;;;12.83;11.73;;;2.50;99.90;;;;;;5011377;28;20172;-63
2021/12/26 08:15:08;;;;;;;12.07;10.97;;;2.60;99.90;;;;;;5011990;28;20175;-64
2021/12/26 08:17:35;;;;;;;13.27;12.07;;;2.60;99.90;;;;;;5011734;28;20532;-64
2021/12/26 08:20:01;;;;;;;13.07;11.87;;;2.60;99.90;;;;;;5011675;28;20188;-65
2021/12/26 08:22:26;;;;;;;12.83;11.73;;;2.70;99.90;;;;;;5011415;28;20190;-65
2021/12/26 08:24:52;;;;;;;13.50;12.40;;;2.70;99.90;;;;;;5011962;28;20171;-64
2021/12/26 08:27:18;;;;;;;13.93;12.63;;;2.70;99.90;;;;;;5011817;28;20214;-63
2021/12/26 08:29:44;;;;;;;14.27;13.13;;;2.70;99.90;;;;;;5012046;28;20693;-64
2021/12/26 08:32:14;;;;;;;14.47;13.43;;;2.70;99.90;;;;;;5011484;28;20176;-64
2021/12/26 08:34:40;;;;;;;13.90;12.80;;;2.70;99.90;;;;;;5011692;28;20692;-64
2021/12/26 08:37:06;;;;;;;14.83;13.43;;;2.70;99.90;;;;;;5011830;28;20172;-64
2021/12/26 08:39:34;;;;;;;14.60;13.30;;;2.80;99.90;;;;;;5014536;28;20195;-64
2021/12/26 08:42:00;;;;;;;15.23;13.87;;;2.80;99.90;;;;;;5015598;28;20254;-64
2021/12/26 08:44:26;;;;;;;15.33;14.20;;;2.90;99.90;;;;;;5015716;28;20644;-65
2021/12/26 08:46:53;;;;;;;14.87;13.47;;;2.80;99.90;;;;;;5015845;28;20180;-65
2021/12/26 08:49:20;;;;;;;14.47;13.37;;;2.90;99.90;;;;;;5015496;28;20215;-63
2021/12/26 08:51:46;;;;;;;14.13;12.93;;;2.90;99.90;;;;;;5014199;28;20266;-65
2021/12/26 08:54:12;;;;;;;14.83;13.43;;;2.90;99.90;;;;;;5015045;28;20200;-64
2021/12/26 08:56:39;;;;;;;14.40;13.30;;;3.00;99.90;;;;;;5015668;28;20259;-64
2021/12/26 08:59:05;;;;;;;14.27;12.97;;;3.00;99.90;;;;;;5015525;28;20195;-63
2021/12/26 09:01:31;;;;;;;14.17;12.87;;;3.00;99.90;;;;;;5015314;28;20258;-64
2021/12/26 09:03:57;;;;;;;14.17;12.90;;;3.00;99.90;;;;;;5014969;28;20227;-63
2021/12/26 09:06:23;;;;;;;14.67;13.20;;;3.10;99.90;;;;;;5015391;28;20176;-64
2021/12/26 09:08:50;;;;;;;15.10;13.33;;;3.10;99.90;;;;;;5015585;28;20184;-64
2021/12/26 09:11:16;;;;;;;12.77;11.47;;;3.10;99.90;;;;;;5015389;28;20187;-65
2021/12/26 09:13:43;;;;;;;13.43;12.10;;;3.20;99.90;;;;;;5014706;28;20219;-65
2021/12/26 09:16:09;;;;;;;13.13;12.03;;;3.20;99.90;;;;;;5015137;28;20173;-65
2021/12/26 09:18:34;;;;;;;13.90;12.50;;;3.30;99.90;;;;;;5014937;28;20164;-65
2021/12/26 09:21:00;;;;;;;15.17;12.50;;;3.30;99.90;;;;;;5015058;28;20203;-66
2021/12/26 09:23:26;;;;;;;14.73;13.17;;;3.30;99.90;;;;;;5013788;28;20176;-64
2021/12/26 09:25:51;;;;;;;14.83;13.53;;;3.30;99.90;;;;;;5013677;28;20172;-64
2021/12/26 09:28:17;;;;;;;12.97;11.87;;;3.40;99.90;;;;;;5014608;28;20182;-65
2021/12/26 09:30:43;;;;;;;13.53;12.33;;;3.40;99.90;;;;;;5013769;28;20319;-65
2021/12/26 09:33:08;;;;;;;14.17;12.87;;;3.40;99.90;;;;;;5005515;28;20211;-66
2021/12/26 09:35:34;;;;;;;13.60;12.27;;;3.40;99.90;;;;;;5009675;28;20630;-64
2021/12/26 09:38:00;;;;;;;14.03;12.57;;;3.50;99.90;;;;;;5013206;28;20634;-65
2021/12/26 09:40:26;;;;;;;13.40;12.20;;;3.50;99.90;;;;;;5007291;28;20205;-65
2021/12/26 09:42:52;;;;;;;14.53;13.03;;;3.50;99.90;;;;;;5012294;28;20179;-65
2021/12/26 09:45:18;;;;;;;13.20;12.20;;;3.50;99.90;;;;;;5014372;28;20173;-65
2021/12/26 09:47:49;;;;;;;13.63;12.40;;;3.50;99.90;;;;;;5010321;28;20188;-64
2021/12/26 09:50:17;;;;;;;13.70;12.47;;;3.50;99.90;;;;;;5009688;28;20284;-67
2021/12/26 09:52:45;;;;;;;13.37;12.07;;;3.40;99.90;;;;;;5009783;28;20184;-65
2021/12/26 09:55:12;;;;;;;13.00;11.80;;;3.40;99.90;;;;;;5003973;28;20642;-66
2021/12/26 09:57:37;;;;;;;12.33;11.13;;;3.30;99.90;;;;;;4997540;28;20887;-67
2021/12/26 10:00:44;;;;;;;13.07;11.87;;;3.20;99.90;;;;;;5014098;28;20230;-65
2021/12/26 10:03:33;;;;;;;14.73;13.37;;;3.20;99.90;;;;;;5005599;28;20184;-65
2021/12/26 10:06:14;;;;;;;15.70;14.00;;;3.10;99.90;;;;;;5011298;28;20176;-64
2021/12/26 10:08:58;;;;;;;15.03;13.83;;;3.10;99.90;;;;;;4999343;28;20204;-65
2021/12/26 10:11:27;;;;;;;13.37;12.07;;;3.10;99.90;;;;;;5014000;28;20203;-65
2021/12/26 10:14:05;;;;;;;14.47;13.10;;;3.00;99.90;;;;;;5011519;28;20212;-65
2021/12/26 10:16:36;;;;;;;15.07;13.60;;;3.00;99.90;;;;;;5014287;28;20178;-63
2021/12/26 10:19:03;;;;;;;15.50;13.27;;;3.00;99.90;;;;;;5014026;28;20184;-66
2021/12/26 10:21:40;;;;;;;15.63;14.03;;;3.10;99.90;;;;;;5013077;28;20208;-65
2021/12/26 10:24:10;;;;;;;15.00;13.63;;;3.20;99.90;;;;;;5005122;28;20233;-66
2021/12/26 10:26:38;;;;;;;15.40;13.90;;;3.30;99.90;;;;;;5013697;28;20843;-65
2021/12/26 10:29:13;;;;;;;17.23;15.53;;;3.20;99.90;;;;;;5013641;28;20287;-65
2021/12/26 10:32:05;;;;;;;14.80;13.50;;;3.30;99.90;;;;;;5010011;28;20191;-69
2021/12/26 10:34:40;;;;;;;15.03;13.40;;;3.30;99.90;;;;;;4987081;28;20220;-68
2021/12/26 10:37:15;;;;;;;15.10;13.73;;;3.30;99.90;;;;;;5011407;28;20250;-66
2021/12/26 10:39:43;;;;;;;15.77;14.27;;;3.30;99.90;;;;;;5006934;28;20664;-67
2021/12/26 10:42:16;;;;;;;13.50;12.27;;;3.40;99.90;;;;;;5012356;28;20696;-64
2021/12/26 10:44:54;;;;;;;14.03;12.70;;;3.40;99.90;;;;;;5012368;28;20190;-65
2021/12/26 10:47:22;;;;;;;14.77;13.13;;;3.50;99.90;;;;;;5013171;28;20603;-65
2021/12/26 10:49:51;;;;;;;12.50;11.43;;;3.60;99.90;;;;;;5009004;28;20255;-66
2021/12/26 10:52:30;;;;;;;13.23;12.03;;;3.70;99.90;;;;;;5006215;28;20642;-66
2021/12/26 10:55:11;;;;;;;13.77;12.40;;;3.80;99.90;;;;;;5008054;28;20203;-65
2021/12/26 10:57:45;;;;;;;12.77;11.60;;;3.90;99.90;;;;;;5010771;28;20183;-66
2021/12/26 11:00:27;;;;;;;13.30;12.03;;;4.00;99.90;;;;;;5012890;28;20187;-66
2021/12/26 11:02:59;;;;;;;13.83;12.53;;;4.00;99.90;;;;;;5013628;28;20191;-67
2021/12/26 11:05:41;;;;;;;14.53;13.13;;;4.10;99.90;;;;;;5013780;28;20176;-65
2021/12/26 11:08:17;;;;;;;12.97;11.60;;;4.10;99.90;;;;;;5006384;28;20581;-67
2021/12/26 11:10:50;;;;;;;13.83;12.07;;;4.10;99.90;;;;;;5012228;28;20186;-66
2021/12/26 11:13:20;;;;;;;13.10;11.70;;;4.10;99.90;;;;;;5010718;28;20768;-66
2021/12/26 11:15:48;;;;;;;13.03;11.93;;;4.10;99.90;;;;;;5002139;28;20188;-66
2021/12/26 11:18:17;;;;;;;13.60;12.37;;;4.10;99.90;;;;;;4993004;28;20251;-66
2021/12/26 11:20:54;;;;;;;14.17;12.80;;;4.10;99.90;;;;;;5010726;28;20656;-66
2021/12/26 11:23:29;;;;;;;12.83;11.53;;;4.10;99.90;;;;;;5011296;28;20188;-66
2021/12/26 11:26:04;;;;;;;13.57;12.27;;;4.10;99.90;;;;;;5011153;28;20187;-65
2021/12/26 11:28:40;;;;;;;13.87;12.57;;;4.00;99.90;;;;;;5012526;28;20669;-65
2021/12/26 11:31:09;;;;;;;14.57;12.10;;;4.00;99.90;;;;;;4993289;28;20161;-66
2021/12/26 11:33:36;;;;;;;13.97;12.60;;;3.90;99.90;;;;;;4993160;28;20232;-65
2021/12/26 11:36:04;;;;;;;13.90;11.47;;;4.00;99.90;;;;;;4997984;28;20176;-65
2021/12/26 11:38:31;;;;;;;11.80;10.60;;;4.00;99.90;;;;;;5011784;28;20199;-66
2021/12/26 11:41:17;;;;;;;12.47;11.27;;;4.10;99.90;;;;;;5012470;28;20676;-65
2021/12/26 11:43:42;;;;;;;13.10;11.90;;;4.10;99.90;;;;;;5012135;28;20210;-66
2021/12/26 11:46:39;;;;;;;12.63;11.33;;;4.20;99.90;;;;;;5012210;28;20192;-66
2021/12/26 11:49:42;;;;;;;13.73;12.33;;;4.20;99.90;;;;;;5005129;28;20216;-66
2021/12/26 11:52:40;;;;;;;11.77;10.67;;;4.20;99.90;;;;;;5011822;28;20281;-66
2021/12/26 11:55:44;;;;;;;14.47;12.40;;;4.20;99.90;;;;;;5010642;28;20207;-66
2021/12/26 11:58:55;;;;;;;12.33;11.23;;;4.30;99.90;;;;;;5010081;28;20558;-65
2021/12/26 12:01:23;;;;;;;12.07;10.90;;;4.50;99.90;;;;;;5004248;28;20200;-65
2021/12/26 12:03:49;;;;;;;13.00;11.70;;;4.70;99.90;;;;;;5010962;28;20267;-65
2021/12/26 12:06:26;;;;;;;13.47;12.07;;;4.80;99.90;;;;;;5011906;28;20243;-66
2021/12/26 12:08:53;;;;;;;12.10;10.80;;;4.90;99.90;;;;;;5011685;28;20223;-66
2021/12/26 12:11:19;;;;;;;13.17;11.90;;;4.90;99.90;;;;;;5011731;28;20255;-65
2021/12/26 12:13:47;;;;;;;12.43;11.20;;;5.00;99.90;;;;;;5011387;28;20298;-66
2021/12/26 12:16:26;;;;;;;12.20;11.10;;;5.00;99.90;;;;;;5011910;28;20653;-66
2021/12/26 12:18:57;;;;;;;13.03;11.83;;;4.90;99.90;;;;;;5011567;28;20192;-67
2021/12/26 12:21:47;;;;;;;13.37;12.10;;;4.90;99.90;;;;;;5008404;28;20547;-65
2021/12/26 12:24:18;;;;;;;12.67;11.57;;;5.00;99.90;;;;;;5002631;28;20198;-66
2021/12/26 12:26:54;;;;;;;11.70;10.77;;;5.00;99.90;;;;;;5006140;28;20718;-65
2021/12/26 12:29:29;;;;;;;12.50;11.37;;;5.00;99.90;;;;;;4999227;28;20254;-67
2021/12/26 12:32:07;;;;;;;12.63;11.63;;;5.00;99.90;;;;;;5010330;28;20187;-66
2021/12/26 12:34:47;;;;;;;12.03;10.90;;;5.00;99.90;;;;;;5009275;28;20207;-66
2021/12/26 12:37:32;;;;;;;12.93;11.70;;;5.00;99.90;;;;;;5007718;28;20641;-67
2021/12/26 12:40:26;;;;;;;12.03;10.93;;;5.00;99.90;;;;;;5011291;28;20188;-67
2021/12/26 12:43:10;;;;;;;13.13;11.57;;;5.00;99.90;;;;;;5009619;28;20211;-65
2021/12/26 12:45:55;;;;;;;12.90;11.67;;;4.90;99.90;;;;;;5011627;28;20536;-66
2021/12/26 12:48:50;;;;;;;15.43;12.23;;;4.80;99.90;;;;;;5009755;28;20168;-65
2021/12/26 12:51:16;;;;;;;11.80;10.77;;;4.80;99.90;;;;;;5008613;28;20192;-64